Terminal Aerodrome Forecast
Issued by NWS Upton, NY

Home | Current Version | Previous Version | Text Only | Print | Product List | Glossary On
Versions: 1 2 3 4 5 6 7 8 9 10 11 12 13 14 15 16 17 18 19 20 21 22 23 24 25 26 27 28 29 30 31 32 33
000
FTUS41 KOKX 260000 AAA
TAFLGA
TAF AMD
KLGA 260044Z 2601/2624 33011KT P6SM SCT080 BKN250
     FM260200 36010KT P6SM BKN080
     FM260400 03009KT P6SM BKN040
     FM261200 06015G21KT P6SM BKN030
      TEMPO 2613/2615 3SM -SN BR BKN015
     FM261500 06020G30KT 1SM -SN BR BKN007
     FM261800 04020G30KT 3/4SM -SN BR BKN007
     FM262200 02020G30KT 1/2SM SN FZFG VV005=

USA.gov is the U.S. government's official web portal to all federal, state and local government web resources and services.